AirNav   Air Wisconsin Airman Trainee
 
 596 users online  

AL51 Flying C's Plantation Airport
Crawford, Alabama, USA

GOING TO CRAWFORD?


FAA INFORMATION EFFECTIVE 31 JANUARY 2019

Location

FAA Identifier: AL51
Lat/Long: 32-24-58.0000N / 085-17-57.0000W
32-24.966667N / 085-17.950000W
32.4161111 / -85.2991667
(estimated)
Elevation: 395 ft. / 120 m (estimated)
Variation: 01W (1990)
From city: 6 miles SW of CRAWFORD, AL
Time zone: UTC -6 (UTC -5 during Daylight Saving Time)
Zip code: 36804

Airport Operations

Airport use: Private use. Permission required prior to landing
Activation date: 10/1994
Control tower: no
ARTCC: ATLANTA CENTER
FSS: ANNISTON FLIGHT SERVICE STATION
Attendance: UNATNDD
Wind indicator: yes
Segmented circle: no

Airport Communications

WX AWOS-3PT at AUO (14 nm NW): 132.575 (334-501-0387)
WX ASOS at CSG (19 nm E): PHONE 706-576-4715

Nearby radio navigation aids

VOR radial/distance  VOR name  Freq  Var
LSFr290/16.3LAWSON VOR/DME111.4002W
CSGr229/18.6COLUMBUS VORTAC117.1001E
TGEr100/19.2TUSKEGEE VOR/DME117.3002E
EUFr341/29.2EUFAULA VORTAC109.2002E
LGCr186/38.3LAGRANGE VORTAC115.6001E

 
NDB name  Hdg/Dist  Freq  Var  ID
FENIX263/13.235502WCS -.-. ...
LAWSON300/15.833502WAWS .- .-- ...
PINE MOUNTAIN223/33.527203WPIM .--. .. --

Airport Services

Runway Information

Runway 12/30

Dimensions: 1860 x 50 ft. / 567 x 15 m
Surface: turf
RUNWAY 12  RUNWAY 30
Traffic pattern: leftleft

Airport Ownership and Management from official FAA records

Ownership: Privately-owned
Owner: TED & BEVERLY COWAN
85 PHILLIPS RD
OPELIKA, AL 36804
Phone 334-332-3457
Manager: TED COWAN
85 PHILLIPS RD
OPELIKA, AL 36804
Phone 334-332-3457

Airport Operational Statistics

Aircraft based on the field: 2
Ultralights: 2
    

Instrument Procedures

There are no published instrument procedures at AL51.

Some nearby airports with instrument procedures:

KAUO - Auburn University Regional Airport (14 nm NW)
KLSF - Lawson Army Airfield (Fort Benning) (17 nm E)
KCSG - Columbus Airport (19 nm E)
06A - Moton Field Municipal Airport (19 nm W)
7A3 - Lanett Municipal Airport (24 nm N)
 
Loc | Ops | Rwys | IFR | FBO | Links
Com | Nav | Svcs | Stats | Notes
Area around AL51 (Flying C's Plantation Airport)
 
Road maps at: MapQuest Bing Google
 
Aerial photo
No photo
 
Sectional chart

 
Airport distance calculator
Flying to Flying C's Plantation Airport? Find the distance to fly.

From to AL51

Sunrise and sunset
Times for 22-Feb-2019
 Local
(UTC-6)
 Zulu
(UTC)
Morning civil twilight05:5311:53
Sunrise06:1812:18
Sunset17:3223:32
Evening civil twilight17:5723:57

Current date and time
Zulu (UTC)  23-Feb-2019 05:17:01
Local (UTC-6)  22-Feb-2019 23:17:01
 
METAR
KAUO 
13nm NW 
230456Z AUTO 06007KT 10SM OVC014 17/17 A3016 RMK AO2 SLP227 T01670167
KLSF 
16nm E 
230456Z AUTO 03008KT 10SM OVC023 18/18 A3015 RMK AO2 SLP213 T01770175 402890177 $
KCSG 
19nm E 
230451Z AUTO 09013KT 10SM BKN009 OVC023 16/13 A3016 RMK AO2 SLP208 T01560133 402830156
TAF
KLSF 
16nm E 
230100Z 2301/2407 12006KT 9999 SCT020 BKN030 BKN100 QNH3006INS BECMG 2305/2306 12006KT 8000 BR SCT012 BKN020 OVC100 QNH3012INS BECMG 2311/2312 15006KT 4800 BR BKN005 BKN012 BKN020 QNH3009INS BECMG 2315/2316 18015G20KT 9999 NSW SCT020 BKN100 QNH3003INS BECMG 2400/2401 21009KT 9999 SCT100 QNH2996INS TX27/2321Z TN16/2312Z
KCSG 
19nm E 
221754Z 2218/2318 20005KT P6SM BKN025 FM222000 14004KT P6SM VCSH BKN025 FM230500 09007KT P6SM VCSH BKN015 FM230700 10007KT 6SM BR BKN009 FM231400 11007KT P6SM OVC010 FM231700 14008KT P6SM OVC025
NOTAMs
Click for the latest NOTAMs
NOTAMs are issued by the DoD/FAA and will open in a separate window not controlled by AirNav.

 

 
 

Would you like to see your business listed on this page?

 If your business provides an interesting product or service to pilots, flight crews, aircraft, or users of the Flying C's Plantation Airport, you should consider listing it here.  To start the listing process, click on the button below
 
Add a business
 

Other Pages about Flying C's Plantation Airport

Update a link
 
Copyright © AirNav, LLC. All rights reserved. Privacy Policy  Contact